sensor_id;sensor_type;location;lat;lon;timestamp;P1;durP1;ratioP1;P2;durP2;ratioP2
70985;SDS011;58645;43.068;25.610;2024-03-08T00:00:34;2.10;;;1.40;;
70985;SDS011;58645;43.068;25.610;2024-03-08T00:02:59;2.30;;;1.50;;
70985;SDS011;58645;43.068;25.610;2024-03-08T00:05:29;2.22;;;1.70;;
70985;SDS011;58645;43.068;25.610;2024-03-08T00:07:55;2.17;;;1.70;;
70985;SDS011;58645;43.068;25.610;2024-03-08T00:10:21;2.10;;;1.10;;
70985;SDS011;58645;43.068;25.610;2024-03-08T00:12:46;3.05;;;1.98;;
70985;SDS011;58645;43.068;25.610;2024-03-08T00:15:15;2.72;;;1.80;;
70985;SDS011;58645;43.068;25.610;2024-03-08T00:17:42;7.00;;;3.25;;
70985;SDS011;58645;43.068;25.610;2024-03-08T00:20:09;3.95;;;2.05;;
70985;SDS011;58645;43.068;25.610;2024-03-08T00:22:35;4.10;;;2.20;;
70985;SDS011;58645;43.068;25.610;2024-03-08T00:25:02;3.55;;;2.53;;
70985;SDS011;58645;43.068;25.610;2024-03-08T00:27:34;3.28;;;1.25;;
70985;SDS011;58645;43.068;25.610;2024-03-08T00:30:00;1.88;;;1.05;;
70985;SDS011;58645;43.068;25.610;2024-03-08T00:32:26;2.28;;;1.13;;
70985;SDS011;58645;43.068;25.610;2024-03-08T00:34:56;5.30;;;3.03;;
70985;SDS011;58645;43.068;25.610;2024-03-08T00:37:22;6.38;;;2.80;;
70985;SDS011;58645;43.068;25.610;2024-03-08T00:39:49;3.42;;;2.47;;
70985;SDS011;58645;43.068;25.610;2024-03-08T00:42:15;2.85;;;1.17;;
70985;SDS011;58645;43.068;25.610;2024-03-08T00:44:41;1.88;;;0.98;;
70985;SDS011;58645;43.068;25.610;2024-03-08T00:47:07;8.80;;;4.97;;
70985;SDS011;58645;43.068;25.610;2024-03-08T00:49:33;4.90;;;2.80;;
70985;SDS011;58645;43.068;25.610;2024-03-08T00:51:59;5.95;;;2.78;;
70985;SDS011;58645;43.068;25.610;2024-03-08T00:54:25;4.07;;;2.20;;
70985;SDS011;58645;43.068;25.610;2024-03-08T00:56:51;2.70;;;1.63;;
70985;SDS011;58645;43.068;25.610;2024-03-08T00:59:16;4.03;;;2.45;;
70985;SDS011;58645;43.068;25.610;2024-03-08T01:01:42;2.30;;;0.90;;
70985;SDS011;58645;43.068;25.610;2024-03-08T01:04:09;2.15;;;1.00;;
70985;SDS011;58645;43.068;25.610;2024-03-08T01:06:35;2.95;;;1.98;;
70985;SDS011;58645;43.068;25.610;2024-03-08T01:09:01;4.07;;;1.63;;
70985;SDS011;58645;43.068;25.610;2024-03-08T01:11:27;2.83;;;1.77;;
70985;SDS011;58645;43.068;25.610;2024-03-08T01:13:55;2.72;;;1.30;;
70985;SDS011;58645;43.068;25.610;2024-03-08T01:16:21;2.67;;;1.52;;
70985;SDS011;58645;43.068;25.610;2024-03-08T01:18:47;3.05;;;1.73;;
70985;SDS011;58645;43.068;25.610;2024-03-08T01:21:12;3.83;;;2.13;;
70985;SDS011;58645;43.068;25.610;2024-03-08T01:23:38;4.93;;;3.05;;
70985;SDS011;58645;43.068;25.610;2024-03-08T01:26:04;6.35;;;2.80;;
70985;SDS011;58645;43.068;25.610;2024-03-08T01:28:31;6.45;;;3.58;;
70985;SDS011;58645;43.068;25.610;2024-03-08T01:30:59;10.18;;;5.28;;
70985;SDS011;58645;43.068;25.610;2024-03-08T01:33:25;11.57;;;5.13;;
70985;SDS011;58645;43.068;25.610;2024-03-08T01:35:55;8.38;;;3.97;;
70985;SDS011;58645;43.068;25.610;2024-03-08T01:38:22;5.95;;;2.35;;
70985;SDS011;58645;43.068;25.610;2024-03-08T01:40:48;11.57;;;5.20;;
70985;SDS011;58645;43.068;25.610;2024-03-08T01:43:16;14.60;;;6.80;;
70985;SDS011;58645;43.068;25.610;2024-03-08T01:45:45;18.05;;;8.85;;
70985;SDS011;58645;43.068;25.610;2024-03-08T01:48:11;22.10;;;10.73;;
70985;SDS011;58645;43.068;25.610;2024-03-08T01:50:37;21.17;;;12.07;;
70985;SDS011;58645;43.068;25.610;2024-03-08T01:55:30;22.80;;;10.63;;
70985;SDS011;58645;43.068;25.610;2024-03-08T01:57:56;22.00;;;10.95;;
70985;SDS011;58645;43.068;25.610;2024-03-08T02:00:24;21.33;;;11.30;;
70985;SDS011;58645;43.068;25.610;2024-03-08T02:02:51;27.08;;;13.38;;
70985;SDS011;58645;43.068;25.610;2024-03-08T02:05:19;23.02;;;12.75;;
70985;SDS011;58645;43.068;25.610;2024-03-08T02:12:40;26.42;;;13.45;;
70985;SDS011;58645;43.068;25.610;2024-03-08T02:15:06;26.65;;;12.52;;
70985;SDS011;58645;43.068;25.610;2024-03-08T02:17:32;26.73;;;14.52;;
70985;SDS011;58645;43.068;25.610;2024-03-08T02:19:59;29.13;;;14.48;;
70985;SDS011;58645;43.068;25.610;2024-03-08T02:22:27;26.67;;;13.18;;
70985;SDS011;58645;43.068;25.610;2024-03-08T02:24:58;27.75;;;12.32;;
70985;SDS011;58645;43.068;25.610;2024-03-08T02:27:26;27.75;;;12.65;;
70985;SDS011;58645;43.068;25.610;2024-03-08T02:29:54;26.55;;;12.48;;
70985;SDS011;58645;43.068;25.610;2024-03-08T02:32:21;32.42;;;16.25;;
70985;SDS011;58645;43.068;25.610;2024-03-08T02:34:47;30.17;;;14.38;;
70985;SDS011;58645;43.068;25.610;2024-03-08T02:37:14;32.58;;;14.10;;
70985;SDS011;58645;43.068;25.610;2024-03-08T02:39:43;32.65;;;13.52;;
70985;SDS011;58645;43.068;25.610;2024-03-08T02:42:09;33.20;;;16.08;;
70985;SDS011;58645;43.068;25.610;2024-03-08T02:44:34;29.17;;;12.95;;
70985;SDS011;58645;43.068;25.610;2024-03-08T02:47:00;34.40;;;17.65;;
70985;SDS011;58645;43.068;25.610;2024-03-08T02:49:26;29.42;;;13.98;;
70985;SDS011;58645;43.068;25.610;2024-03-08T02:51:52;30.27;;;14.88;;
70985;SDS011;58645;43.068;25.610;2024-03-08T02:54:19;29.55;;;13.07;;
70985;SDS011;58645;43.068;25.610;2024-03-08T02:56:46;30.55;;;13.68;;
70985;SDS011;58645;43.068;25.610;2024-03-08T02:59:12;27.33;;;12.93;;
70985;SDS011;58645;43.068;25.610;2024-03-08T03:01:38;25.00;;;12.20;;
70985;SDS011;58645;43.068;25.610;2024-03-08T03:04:04;26.40;;;13.82;;
70985;SDS011;58645;43.068;25.610;2024-03-08T03:06:30;30.42;;;13.15;;
70985;SDS011;58645;43.068;25.610;2024-03-08T03:08:56;27.42;;;12.80;;
70985;SDS011;58645;43.068;25.610;2024-03-08T03:11:25;28.73;;;14.05;;
70985;SDS011;58645;43.068;25.610;2024-03-08T03:13:52;27.13;;;12.88;;
70985;SDS011;58645;43.068;25.610;2024-03-08T03:16:20;23.08;;;12.65;;
70985;SDS011;58645;43.068;25.610;2024-03-08T03:18:46;25.80;;;12.32;;
70985;SDS011;58645;43.068;25.610;2024-03-08T03:21:13;24.98;;;11.93;;
70985;SDS011;58645;43.068;25.610;2024-03-08T03:23:41;27.88;;;14.27;;
70985;SDS011;58645;43.068;25.610;2024-03-08T03:26:10;26.65;;;14.23;;
70985;SDS011;58645;43.068;25.610;2024-03-08T03:28:37;27.85;;;11.98;;
70985;SDS011;58645;43.068;25.610;2024-03-08T03:31:07;24.48;;;11.63;;
70985;SDS011;58645;43.068;25.610;2024-03-08T03:33:35;24.20;;;12.50;;
70985;SDS011;58645;43.068;25.610;2024-03-08T03:38:28;24.08;;;12.50;;
70985;SDS011;58645;43.068;25.610;2024-03-08T03:40:53;25.38;;;13.27;;
70985;SDS011;58645;43.068;25.610;2024-03-08T03:43:22;20.63;;;11.02;;
70985;SDS011;58645;43.068;25.610;2024-03-08T03:45:48;23.92;;;11.50;;
70985;SDS011;58645;43.068;25.610;2024-03-08T03:48:15;24.13;;;12.07;;
70985;SDS011;58645;43.068;25.610;2024-03-08T03:50:41;24.08;;;11.35;;
70985;SDS011;58645;43.068;25.610;2024-03-08T03:53:07;23.98;;;11.32;;
70985;SDS011;58645;43.068;25.610;2024-03-08T03:55:33;24.88;;;11.27;;
70985;SDS011;58645;43.068;25.610;2024-03-08T03:58:00;22.38;;;12.48;;
70985;SDS011;58645;43.068;25.610;2024-03-08T04:00:26;22.88;;;10.80;;
70985;SDS011;58645;43.068;25.610;2024-03-08T04:02:52;21.25;;;11.68;;
70985;SDS011;58645;43.068;25.610;2024-03-08T04:05:18;25.98;;;13.27;;
70985;SDS011;58645;43.068;25.610;2024-03-08T04:07:44;23.90;;;11.52;;
70985;SDS011;58645;43.068;25.610;2024-03-08T04:10:10;23.85;;;11.90;;
70985;SDS011;58645;43.068;25.610;2024-03-08T04:12:37;22.23;;;12.25;;
70985;SDS011;58645;43.068;25.610;2024-03-08T04:15:03;25.63;;;12.85;;
70985;SDS011;58645;43.068;25.610;2024-03-08T04:17:32;20.70;;;11.07;;
70985;SDS011;58645;43.068;25.610;2024-03-08T04:20:02;22.40;;;11.73;;
70985;SDS011;58645;43.068;25.610;2024-03-08T04:22:35;23.98;;;10.43;;
70985;SDS011;58645;43.068;25.610;2024-03-08T04:25:02;23.75;;;13.65;;
70985;SDS011;58645;43.068;25.610;2024-03-08T04:27:28;24.42;;;13.23;;
70985;SDS011;58645;43.068;25.610;2024-03-08T04:29:54;23.60;;;10.73;;
70985;SDS011;58645;43.068;25.610;2024-03-08T04:32:19;24.10;;;13.07;;
70985;SDS011;58645;43.068;25.610;2024-03-08T04:34:45;25.35;;;12.40;;
70985;SDS011;58645;43.068;25.610;2024-03-08T04:37:11;26.15;;;12.50;;
70985;SDS011;58645;43.068;25.610;2024-03-08T04:39:39;22.33;;;13.43;;
70985;SDS011;58645;43.068;25.610;2024-03-08T04:42:06;23.75;;;12.80;;
70985;SDS011;58645;43.068;25.610;2024-03-08T04:44:35;25.95;;;11.57;;
70985;SDS011;58645;43.068;25.610;2024-03-08T04:47:03;21.65;;;10.52;;
70985;SDS011;58645;43.068;25.610;2024-03-08T04:49:31;23.35;;;12.18;;
70985;SDS011;58645;43.068;25.610;2024-03-08T04:52:00;21.77;;;10.48;;
70985;SDS011;58645;43.068;25.610;2024-03-08T04:54:29;18.65;;;9.88;;
70985;SDS011;58645;43.068;25.610;2024-03-08T04:56:55;21.17;;;11.55;;
70985;SDS011;58645;43.068;25.610;2024-03-08T04:59:21;22.92;;;10.90;;
70985;SDS011;58645;43.068;25.610;2024-03-08T05:01:47;22.58;;;10.75;;
70985;SDS011;58645;43.068;25.610;2024-03-08T05:04:13;19.75;;;9.82;;
70985;SDS011;58645;43.068;25.610;2024-03-08T05:06:40;17.45;;;8.95;;
70985;SDS011;58645;43.068;25.610;2024-03-08T05:09:06;16.75;;;9.60;;
70985;SDS011;58645;43.068;25.610;2024-03-08T05:11:45;17.58;;;9.00;;
70985;SDS011;58645;43.068;25.610;2024-03-08T05:14:12;19.73;;;10.07;;
70985;SDS011;58645;43.068;25.610;2024-03-08T05:16:45;15.93;;;9.18;;
70985;SDS011;58645;43.068;25.610;2024-03-08T05:19:14;20.23;;;9.65;;
70985;SDS011;58645;43.068;25.610;2024-03-08T05:21:44;19.67;;;9.73;;
70985;SDS011;58645;43.068;25.610;2024-03-08T05:24:14;19.33;;;10.75;;
70985;SDS011;58645;43.068;25.610;2024-03-08T05:29:07;16.80;;;8.68;;
70985;SDS011;58645;43.068;25.610;2024-03-08T05:31:55;18.52;;;9.95;;
70985;SDS011;58645;43.068;25.610;2024-03-08T05:34:26;19.80;;;10.15;;
70985;SDS011;58645;43.068;25.610;2024-03-08T05:36:53;18.13;;;9.40;;
70985;SDS011;58645;43.068;25.610;2024-03-08T05:39:19;19.95;;;9.52;;
70985;SDS011;58645;43.068;25.610;2024-03-08T05:41:46;18.80;;;9.80;;
70985;SDS011;58645;43.068;25.610;2024-03-08T05:44:12;22.42;;;11.45;;
70985;SDS011;58645;43.068;25.610;2024-03-08T05:46:38;23.98;;;11.13;;
70985;SDS011;58645;43.068;25.610;2024-03-08T05:49:05;23.20;;;11.70;;
70985;SDS011;58645;43.068;25.610;2024-03-08T05:51:32;26.10;;;11.40;;
70985;SDS011;58645;43.068;25.610;2024-03-08T05:54:04;25.08;;;12.60;;
70985;SDS011;58645;43.068;25.610;2024-03-08T05:56:35;22.73;;;11.52;;
70985;SDS011;58645;43.068;25.610;2024-03-08T05:59:22;22.90;;;11.40;;
70985;SDS011;58645;43.068;25.610;2024-03-08T06:01:48;23.63;;;11.85;;
70985;SDS011;58645;43.068;25.610;2024-03-08T06:04:14;26.38;;;12.23;;
70985;SDS011;58645;43.068;25.610;2024-03-08T06:06:40;26.63;;;12.85;;
70985;SDS011;58645;43.068;25.610;2024-03-08T06:09:06;26.30;;;13.77;;
70985;SDS011;58645;43.068;25.610;2024-03-08T06:11:37;29.95;;;13.73;;
70985;SDS011;58645;43.068;25.610;2024-03-08T06:14:03;25.60;;;12.75;;
70985;SDS011;58645;43.068;25.610;2024-03-08T06:16:29;35.38;;;14.40;;
70985;SDS011;58645;43.068;25.610;2024-03-08T06:18:57;31.80;;;15.15;;
70985;SDS011;58645;43.068;25.610;2024-03-08T06:21:23;28.17;;;13.43;;
70985;SDS011;58645;43.068;25.610;2024-03-08T06:23:52;27.48;;;13.85;;
70985;SDS011;58645;43.068;25.610;2024-03-08T06:26:20;29.17;;;13.88;;
70985;SDS011;58645;43.068;25.610;2024-03-08T06:28:47;27.60;;;12.18;;
70985;SDS011;58645;43.068;25.610;2024-03-08T06:31:13;30.20;;;13.90;;
70985;SDS011;58645;43.068;25.610;2024-03-08T06:33:39;29.90;;;13.60;;
70985;SDS011;58645;43.068;25.610;2024-03-08T06:36:05;29.15;;;14.75;;
70985;SDS011;58645;43.068;25.610;2024-03-08T06:38:32;33.63;;;16.25;;
70985;SDS011;58645;43.068;25.610;2024-03-08T06:40:58;30.45;;;16.35;;
70985;SDS011;58645;43.068;25.610;2024-03-08T06:43:24;30.98;;;14.13;;
70985;SDS011;58645;43.068;25.610;2024-03-08T06:45:59;30.35;;;14.00;;
70985;SDS011;58645;43.068;25.610;2024-03-08T06:48:25;31.75;;;14.25;;
70985;SDS011;58645;43.068;25.610;2024-03-08T06:50:52;31.63;;;15.25;;
70985;SDS011;58645;43.068;25.610;2024-03-08T06:53:17;30.25;;;14.60;;
70985;SDS011;58645;43.068;25.610;2024-03-08T06:55:44;30.67;;;14.55;;
70985;SDS011;58645;43.068;25.610;2024-03-08T06:58:17;32.40;;;15.50;;
70985;SDS011;58645;43.068;25.610;2024-03-08T07:01:04;31.92;;;14.85;;
70985;SDS011;58645;43.068;25.610;2024-03-08T07:03:32;33.13;;;15.18;;
70985;SDS011;58645;43.068;25.610;2024-03-08T07:05:58;27.85;;;14.15;;
70985;SDS011;58645;43.068;25.610;2024-03-08T07:08:27;33.92;;;15.70;;
70985;SDS011;58645;43.068;25.610;2024-03-08T07:10:53;35.03;;;15.27;;
70985;SDS011;58645;43.068;25.610;2024-03-08T07:13:36;30.90;;;14.07;;
70985;SDS011;58645;43.068;25.610;2024-03-08T07:16:04;33.95;;;14.85;;
70985;SDS011;58645;43.068;25.610;2024-03-08T07:18:33;30.55;;;14.10;;
70985;SDS011;58645;43.068;25.610;2024-03-08T07:21:01;34.20;;;16.58;;
70985;SDS011;58645;43.068;25.610;2024-03-08T07:23:28;30.48;;;13.93;;
70985;SDS011;58645;43.068;25.610;2024-03-08T07:26:20;26.13;;;12.55;;
70985;SDS011;58645;43.068;25.610;2024-03-08T07:28:46;27.52;;;13.68;;
70985;SDS011;58645;43.068;25.610;2024-03-08T07:31:12;28.95;;;13.48;;
70985;SDS011;58645;43.068;25.610;2024-03-08T07:33:56;33.15;;;13.25;;
70985;SDS011;58645;43.068;25.610;2024-03-08T07:36:23;29.08;;;13.40;;
70985;SDS011;58645;43.068;25.610;2024-03-08T07:38:51;27.08;;;12.45;;
70985;SDS011;58645;43.068;25.610;2024-03-08T07:41:17;27.70;;;12.55;;
70985;SDS011;58645;43.068;25.610;2024-03-08T07:43:45;28.40;;;13.05;;
70985;SDS011;58645;43.068;25.610;2024-03-08T07:46:11;26.63;;;11.75;;
70985;SDS011;58645;43.068;25.610;2024-03-08T07:48:38;23.75;;;11.38;;
70985;SDS011;58645;43.068;25.610;2024-03-08T07:51:20;29.40;;;13.80;;
70985;SDS011;58645;43.068;25.610;2024-03-08T07:53:47;25.60;;;12.15;;
70985;SDS011;58645;43.068;25.610;2024-03-08T07:56:14;24.20;;;11.75;;
70985;SDS011;58645;43.068;25.610;2024-03-08T07:58:42;24.98;;;12.50;;
70985;SDS011;58645;43.068;25.610;2024-03-08T08:01:08;27.38;;;12.25;;
70985;SDS011;58645;43.068;25.610;2024-03-08T08:06:07;25.30;;;11.32;;
70985;SDS011;58645;43.068;25.610;2024-03-08T08:08:36;24.10;;;11.02;;
70985;SDS011;58645;43.068;25.610;2024-03-08T08:11:02;22.60;;;10.88;;
70985;SDS011;58645;43.068;25.610;2024-03-08T08:13:33;23.00;;;11.32;;
70985;SDS011;58645;43.068;25.610;2024-03-08T08:16:02;24.13;;;10.52;;
70985;SDS011;58645;43.068;25.610;2024-03-08T08:18:30;23.80;;;12.30;;
70985;SDS011;58645;43.068;25.610;2024-03-08T08:20:58;23.77;;;11.38;;
70985;SDS011;58645;43.068;25.610;2024-03-08T08:23:25;21.85;;;10.07;;
70985;SDS011;58645;43.068;25.610;2024-03-08T08:25:51;21.52;;;10.27;;
70985;SDS011;58645;43.068;25.610;2024-03-08T08:28:17;24.65;;;12.52;;
70985;SDS011;58645;43.068;25.610;2024-03-08T08:30:44;22.08;;;11.20;;
70985;SDS011;58645;43.068;25.610;2024-03-08T08:33:17;20.13;;;9.30;;
70985;SDS011;58645;43.068;25.610;2024-03-08T08:35:43;21.83;;;10.32;;
70985;SDS011;58645;43.068;25.610;2024-03-08T08:38:20;22.60;;;11.48;;
70985;SDS011;58645;43.068;25.610;2024-03-08T08:40:49;21.35;;;9.90;;
70985;SDS011;58645;43.068;25.610;2024-03-08T08:43:15;19.30;;;10.55;;
70985;SDS011;58645;43.068;25.610;2024-03-08T08:45:42;17.15;;;8.73;;
70985;SDS011;58645;43.068;25.610;2024-03-08T08:48:08;21.08;;;10.63;;
70985;SDS011;58645;43.068;25.610;2024-03-08T08:50:35;17.83;;;9.85;;
70985;SDS011;58645;43.068;25.610;2024-03-08T08:53:03;19.80;;;10.02;;
70985;SDS011;58645;43.068;25.610;2024-03-08T08:55:29;15.82;;;10.07;;
70985;SDS011;58645;43.068;25.610;2024-03-08T08:58:04;18.08;;;8.55;;
70985;SDS011;58645;43.068;25.610;2024-03-08T09:00:29;14.85;;;8.88;;
70985;SDS011;58645;43.068;25.610;2024-03-08T09:03:02;20.98;;;9.60;;
70985;SDS011;58645;43.068;25.610;2024-03-08T09:05:33;17.52;;;9.88;;
70985;SDS011;58645;43.068;25.610;2024-03-08T09:08:02;17.38;;;7.90;;
70985;SDS011;58645;43.068;25.610;2024-03-08T09:10:31;19.10;;;8.80;;
70985;SDS011;58645;43.068;25.610;2024-03-08T09:12:56;19.13;;;8.07;;
70985;SDS011;58645;43.068;25.610;2024-03-08T09:15:24;17.02;;;8.52;;
70985;SDS011;58645;43.068;25.610;2024-03-08T09:18:06;13.77;;;7.03;;
70985;SDS011;58645;43.068;25.610;2024-03-08T09:20:35;18.13;;;8.07;;
70985;SDS011;58645;43.068;25.610;2024-03-08T09:26:03;13.15;;;8.02;;
70985;SDS011;58645;43.068;25.610;2024-03-08T09:28:29;14.32;;;7.90;;
70985;SDS011;58645;43.068;25.610;2024-03-08T09:30:57;13.20;;;7.60;;
70985;SDS011;58645;43.068;25.610;2024-03-08T09:33:24;13.32;;;8.50;;
70985;SDS011;58645;43.068;25.610;2024-03-08T09:35:55;15.57;;;7.70;;
70985;SDS011;58645;43.068;25.610;2024-03-08T09:38:23;17.17;;;8.40;;
70985;SDS011;58645;43.068;25.610;2024-03-08T09:41:30;18.70;;;9.02;;
70985;SDS011;58645;43.068;25.610;2024-03-08T09:47:14;16.77;;;9.85;;
70985;SDS011;58645;43.068;25.610;2024-03-08T09:49:40;17.08;;;8.07;;
70985;SDS011;58645;43.068;25.610;2024-03-08T09:52:07;17.33;;;8.52;;
70985;SDS011;58645;43.068;25.610;2024-03-08T09:54:33;20.10;;;9.25;;
70985;SDS011;58645;43.068;25.610;2024-03-08T09:56:59;16.85;;;8.55;;
70985;SDS011;58645;43.068;25.610;2024-03-08T09:59:32;14.60;;;7.93;;
70985;SDS011;58645;43.068;25.610;2024-03-08T10:02:03;19.77;;;9.45;;
70985;SDS011;58645;43.068;25.610;2024-03-08T10:04:30;20.27;;;10.30;;
70985;SDS011;58645;43.068;25.610;2024-03-08T10:07:03;18.52;;;8.43;;
70985;SDS011;58645;43.068;25.610;2024-03-08T10:09:44;26.08;;;12.15;;
70985;SDS011;58645;43.068;25.610;2024-03-08T10:12:16;21.23;;;11.10;;
70985;SDS011;58645;43.068;25.610;2024-03-08T10:14:45;15.98;;;10.57;;
70985;SDS011;58645;43.068;25.610;2024-03-08T10:17:12;24.85;;;12.13;;
70985;SDS011;58645;43.068;25.610;2024-03-08T10:19:37;17.27;;;9.10;;
70985;SDS011;58645;43.068;25.610;2024-03-08T10:22:04;21.33;;;10.73;;
70985;SDS011;58645;43.068;25.610;2024-03-08T10:24:40;29.85;;;15.50;;
70985;SDS011;58645;43.068;25.610;2024-03-08T10:27:06;25.35;;;13.02;;
70985;SDS011;58645;43.068;25.610;2024-03-08T10:32:19;23.08;;;10.57;;
70985;SDS011;58645;43.068;25.610;2024-03-08T10:35:02;19.33;;;10.77;;
70985;SDS011;58645;43.068;25.610;2024-03-08T10:37:28;15.50;;;7.93;;
70985;SDS011;58645;43.068;25.610;2024-03-08T10:42:43;21.00;;;10.32;;
70985;SDS011;58645;43.068;25.610;2024-03-08T10:45:45;21.45;;;10.23;;
70985;SDS011;58645;43.068;25.610;2024-03-08T10:48:24;17.83;;;8.60;;
70985;SDS011;58645;43.068;25.610;2024-03-08T10:51:02;21.92;;;11.13;;
70985;SDS011;58645;43.068;25.610;2024-03-08T10:53:29;20.85;;;11.02;;
70985;SDS011;58645;43.068;25.610;2024-03-08T10:55:56;16.88;;;9.05;;
70985;SDS011;58645;43.068;25.610;2024-03-08T10:58:26;16.20;;;9.15;;
70985;SDS011;58645;43.068;25.610;2024-03-08T11:00:53;17.73;;;9.52;;
70985;SDS011;58645;43.068;25.610;2024-03-08T11:08:48;18.58;;;9.63;;
70985;SDS011;58645;43.068;25.610;2024-03-08T11:11:31;20.48;;;10.65;;
70985;SDS011;58645;43.068;25.610;2024-03-08T11:14:00;18.35;;;10.93;;
70985;SDS011;58645;43.068;25.610;2024-03-08T11:19:06;18.38;;;9.75;;
70985;SDS011;58645;43.068;25.610;2024-03-08T11:21:56;19.63;;;9.05;;
70985;SDS011;58645;43.068;25.610;2024-03-08T11:24:26;15.68;;;8.45;;
70985;SDS011;58645;43.068;25.610;2024-03-08T11:29:59;17.17;;;9.07;;
70985;SDS011;58645;43.068;25.610;2024-03-08T11:32:44;19.33;;;9.60;;
70985;SDS011;58645;43.068;25.610;2024-03-08T11:35:21;19.15;;;10.60;;
70985;SDS011;58645;43.068;25.610;2024-03-08T11:37:50;17.30;;;8.48;;
70985;SDS011;58645;43.068;25.610;2024-03-08T11:40:16;16.55;;;8.68;;
70985;SDS011;58645;43.068;25.610;2024-03-08T11:42:47;16.55;;;9.18;;
70985;SDS011;58645;43.068;25.610;2024-03-08T11:45:17;19.77;;;9.52;;
70985;SDS011;58645;43.068;25.610;2024-03-08T11:47:46;18.80;;;10.50;;
70985;SDS011;58645;43.068;25.610;2024-03-08T11:50:13;15.45;;;9.30;;
70985;SDS011;58645;43.068;25.610;2024-03-08T11:52:39;17.30;;;8.35;;
70985;SDS011;58645;43.068;25.610;2024-03-08T11:55:05;15.30;;;7.88;;
70985;SDS011;58645;43.068;25.610;2024-03-08T11:57:32;16.02;;;8.57;;
70985;SDS011;58645;43.068;25.610;2024-03-08T11:59:58;18.38;;;9.40;;
70985;SDS011;58645;43.068;25.610;2024-03-08T12:02:34;16.23;;;8.27;;
70985;SDS011;58645;43.068;25.610;2024-03-08T12:05:05;17.00;;;9.02;;
70985;SDS011;58645;43.068;25.610;2024-03-08T12:07:31;18.13;;;8.88;;
70985;SDS011;58645;43.068;25.610;2024-03-08T12:12:47;19.35;;;9.32;;
70985;SDS011;58645;43.068;25.610;2024-03-08T12:15:21;17.33;;;9.10;;
70985;SDS011;58645;43.068;25.610;2024-03-08T12:17:52;21.23;;;10.88;;
70985;SDS011;58645;43.068;25.610;2024-03-08T12:22:48;17.55;;;9.10;;
70985;SDS011;58645;43.068;25.610;2024-03-08T12:27:41;19.63;;;10.15;;
70985;SDS011;58645;43.068;25.610;2024-03-08T12:35:21;20.85;;;11.02;;
70985;SDS011;58645;43.068;25.610;2024-03-08T12:37:48;21.35;;;10.55;;
70985;SDS011;58645;43.068;25.610;2024-03-08T12:40:16;22.17;;;10.88;;
70985;SDS011;58645;43.068;25.610;2024-03-08T12:42:44;22.63;;;10.50;;
70985;SDS011;58645;43.068;25.610;2024-03-08T12:45:13;21.25;;;10.50;;
70985;SDS011;58645;43.068;25.610;2024-03-08T12:47:39;25.27;;;10.65;;
70985;SDS011;58645;43.068;25.610;2024-03-08T12:50:07;25.83;;;12.30;;
70985;SDS011;58645;43.068;25.610;2024-03-08T12:52:34;22.05;;;10.88;;
70985;SDS011;58645;43.068;25.610;2024-03-08T12:55:00;22.15;;;10.48;;
70985;SDS011;58645;43.068;25.610;2024-03-08T12:57:29;23.08;;;10.57;;
70985;SDS011;58645;43.068;25.610;2024-03-08T12:59:55;23.00;;;10.90;;
70985;SDS011;58645;43.068;25.610;2024-03-08T13:02:21;22.63;;;11.73;;
70985;SDS011;58645;43.068;25.610;2024-03-08T13:04:49;25.08;;;12.57;;
70985;SDS011;58645;43.068;25.610;2024-03-08T13:07:22;24.95;;;11.48;;
70985;SDS011;58645;43.068;25.610;2024-03-08T13:09:51;28.17;;;12.30;;
70985;SDS011;58645;43.068;25.610;2024-03-08T13:12:23;26.70;;;14.45;;
70985;SDS011;58645;43.068;25.610;2024-03-08T13:14:49;24.42;;;10.45;;
70985;SDS011;58645;43.068;25.610;2024-03-08T13:17:15;25.15;;;12.43;;
70985;SDS011;58645;43.068;25.610;2024-03-08T13:19:41;27.55;;;13.23;;
70985;SDS011;58645;43.068;25.610;2024-03-08T13:22:07;23.88;;;10.90;;
70985;SDS011;58645;43.068;25.610;2024-03-08T13:24:38;22.05;;;12.48;;
70985;SDS011;58645;43.068;25.610;2024-03-08T13:27:06;23.38;;;10.95;;
70985;SDS011;58645;43.068;25.610;2024-03-08T13:29:53;23.40;;;10.90;;
70985;SDS011;58645;43.068;25.610;2024-03-08T13:32:19;27.27;;;13.15;;
70985;SDS011;58645;43.068;25.610;2024-03-08T13:34:49;24.58;;;13.07;;
70985;SDS011;58645;43.068;25.610;2024-03-08T13:37:19;23.48;;;10.93;;
70985;SDS011;58645;43.068;25.610;2024-03-08T13:39:45;27.58;;;12.05;;
70985;SDS011;58645;43.068;25.610;2024-03-08T13:42:13;24.27;;;11.73;;
70985;SDS011;58645;43.068;25.610;2024-03-08T13:44:47;25.08;;;11.68;;
70985;SDS011;58645;43.068;25.610;2024-03-08T13:47:16;24.75;;;13.27;;
70985;SDS011;58645;43.068;25.610;2024-03-08T13:49:43;27.35;;;13.52;;
70985;SDS011;58645;43.068;25.610;2024-03-08T13:52:09;24.35;;;11.13;;
70985;SDS011;58645;43.068;25.610;2024-03-08T13:54:37;25.67;;;11.43;;
70985;SDS011;58645;43.068;25.610;2024-03-08T13:57:04;24.73;;;12.80;;
70985;SDS011;58645;43.068;25.610;2024-03-08T13:59:33;24.17;;;11.38;;
70985;SDS011;58645;43.068;25.610;2024-03-08T14:02:00;25.10;;;11.48;;
70985;SDS011;58645;43.068;25.610;2024-03-08T14:06:55;30.08;;;12.50;;
70985;SDS011;58645;43.068;25.610;2024-03-08T14:09:25;24.85;;;11.70;;
70985;SDS011;58645;43.068;25.610;2024-03-08T14:11:55;26.40;;;11.43;;
70985;SDS011;58645;43.068;25.610;2024-03-08T14:14:21;30.33;;;14.13;;
70985;SDS011;58645;43.068;25.610;2024-03-08T14:16:48;31.20;;;12.32;;
70985;SDS011;58645;43.068;25.610;2024-03-08T14:19:18;29.33;;;13.60;;
70985;SDS011;58645;43.068;25.610;2024-03-08T14:21:44;35.50;;;14.82;;
70985;SDS011;58645;43.068;25.610;2024-03-08T14:24:10;32.45;;;12.90;;
70985;SDS011;58645;43.068;25.610;2024-03-08T14:26:36;30.02;;;12.70;;
70985;SDS011;58645;43.068;25.610;2024-03-08T14:29:04;31.55;;;14.50;;
70985;SDS011;58645;43.068;25.610;2024-03-08T14:31:32;33.15;;;15.75;;
70985;SDS011;58645;43.068;25.610;2024-03-08T14:33:58;30.38;;;13.23;;
70985;SDS011;58645;43.068;25.610;2024-03-08T14:36:24;33.60;;;14.13;;
70985;SDS011;58645;43.068;25.610;2024-03-08T14:38:53;31.95;;;14.75;;
70985;SDS011;58645;43.068;25.610;2024-03-08T14:41:19;31.63;;;14.20;;
70985;SDS011;58645;43.068;25.610;2024-03-08T14:43:45;32.30;;;15.43;;
70985;SDS011;58645;43.068;25.610;2024-03-08T14:46:12;27.77;;;13.43;;
70985;SDS011;58645;43.068;25.610;2024-03-08T14:48:52;35.53;;;13.93;;
70985;SDS011;58645;43.068;25.610;2024-03-08T14:51:19;35.00;;;15.00;;
70985;SDS011;58645;43.068;25.610;2024-03-08T14:53:48;32.45;;;13.52;;
70985;SDS011;58645;43.068;25.610;2024-03-08T14:56:14;34.17;;;16.67;;
70985;SDS011;58645;43.068;25.610;2024-03-08T14:58:45;31.70;;;15.52;;
70985;SDS011;58645;43.068;25.610;2024-03-08T15:01:12;33.17;;;15.77;;
70985;SDS011;58645;43.068;25.610;2024-03-08T15:03:41;35.50;;;16.23;;
70985;SDS011;58645;43.068;25.610;2024-03-08T15:06:10;36.72;;;17.45;;
70985;SDS011;58645;43.068;25.610;2024-03-08T15:08:37;31.23;;;14.73;;
70985;SDS011;58645;43.068;25.610;2024-03-08T15:11:05;32.65;;;14.75;;
70985;SDS011;58645;43.068;25.610;2024-03-08T15:13:34;37.92;;;15.70;;